Wickes, AR

4:46 PM CDT on August 30, 2014 (GMT -0500)
Mena | Change Station
CLOSE
Current Station
Airport
Location: Mena,
Elevation: 1079 ft
Nearby Weather Stations

Elev 1079 ft 34.55 °N, 94.20 °W | Updated 11 minutes ago

Scattered Clouds
Scattered Clouds
88 °F
Feels Like 94 °F
N
0
Wind Variable Wind from North

Today
High -- | Low -- °F
--% Chance of Precip.
Yesterday
High -- | Low -- °F
Precip. -- in
6:49 AM 7:46 PM
Waxing Crescent, 25% visible
Pressure 29.93 in
Visibility 10.0 miles
Clouds Scattered Clouds 3900 ft
Heat Index 94 °F
Dew Point 72 °F
Humidity 58%
Rainfall 0.00 in
Snow Depth Not available.
UV 4 out of 12
Pollen 8.70 out of 12
Air Quality Not available.
Flu Activity Not available.
METAR KMEZ 302135Z AUTO 00000KT 10SM SCT039 31/22 A2993 RMK AO2

More Conditions Fewer Conditions

Pressure 29.93 in
Visibility 10.0 miles
Clouds Scattered Clouds 3900 ft
Heat Index 94 °F
Dew Point 72 °F
Humidity 58%
Rainfall 0.00 in
Snow Depth Not available.
UV 4 out of 12
Pollen 8.70 out of 12
Air Quality Not available.
Flu Activity Not available.
METAR KMEZ 302135Z AUTO 00000KT 10SM SCT039 31/22 A2993 RMK AO2

More Conditions Fewer Conditions

10-Day Weather Forecast

Almanac

Astronomy

Aug. 30, 2014 Rise Set
Actual Time 6:49 AM CDT 7:46 PM CDT
Civil Twilight 6:23 AM CDT 8:11 PM CDT
Nautical Twilight 5:53 AM CDT 8:42 PM CDT
Astronomical Twilight 5:21 AM CDT 9:13 PM CDT
Moon 11:23 AM CDT 10:35 PM CDT
Length of Visible Light 13h 48m
Length of Day
12h 56m
Tomorrow will be 2m 2s shorter.
Waxing Crescent, 25% of the Moon is Illuminated
Today
Waxing Crescent
Sep 2
First Quarter
Sep 8
Full
Sep 15
Last Quarter
Sep 24
New

Today's Extremes

State Highs State Lows

Community

WunderPhotos

Upload Photos

1,748,647 photos uploaded!

WunderBlogs® & News

Nearby

Snow Depth

Station Depth Elevation
No new snow has been reported.

Earthquake Activity

City Distance Mag. Time & Date
No recent earthquake activity has been reported nearby.
Minimum magnitude displayed is 2.5.

Coastal Water Temperatures

Place Temperature
No Stations Reporting

Nearby Weather Stations